Home > Products > Valid Products > TAF

000
FTUS43 KPAH 211100
TAFEVV
TAF
KEVV 211139Z 2112/2212 04003KT 4SM BR FEW250
     FM211400 11004KT P6SM FEW035 SCT250
     FM221100 13006KT P6SM BKN015=



000
FTUS43 KPAH 211100
TAFCGI
TAF
KCGI 211139Z 2112/2212 09004KT P6SM BKN027
      TEMPO 2112/2114 6SM BR SCT027
     FM211900 14006KT P6SM BKN035
     FM220100 14006KT P6SM SCT080 BKN150
     FM221100 15008KT P6SM BKN015=



000
FTUS43 KPAH 211100
TAFPAH
TAF
KPAH 211139Z 2112/2212 00000KT 4SM BR FEW250
     FM211400 12005KT P6SM FEW035 SCT250
     FM220400 14006KT P6SM FEW070 BKN150
     FM221000 14007KT P6SM BKN015=



000
FTUS43 KPAH 210900 AAA
TAFCGI
TAF AMD
KCGI 210950Z 2110/2206 08003KT P6SM BKN027
      TEMPO 2110/2114 6SM BR SCT027
     FM220300 20005KT P6SM FEW070 BKN180=



000
FTUS43 KPAH 210900 AAA
TAFCGI
TAF AMD
KCGI 210950Z 2110/2206 08003KT P6SM BKN027
      TEMPO 2110/2114 6SM BR SCT027
     FM220300 20005KT P6SM FEW070 BKN180=



000
FTUS43 KPAH 210500
TAFEVV
TAF
KEVV 210525Z 2106/2206 VRB02KT 5SM BR SKC
     FM211400 13004KT P6SM SCT250=



000
FTUS43 KPAH 210500
TAFPAH
TAF
KPAH 210525Z 2106/2206 00000KT P6SM SKC
     FM210900 00000KT 4SM BR SKC
     FM211300 12003KT P6SM SKC
     FM220400 15004KT P6SM FEW070 BKN200=



000
FTUS43 KPAH 210500
TAFCGI
TAF
KCGI 210525Z 2106/2206 12002KT P6SM OVC024
      TEMPO 2107/2110 6SM BR SCT024
     FM220300 20005KT P6SM FEW070 BKN180=



000
FTUS43 KPAH 202300
TAFPAH
TAF
KPAH 202324Z 2100/2124 11003KT P6SM SKC
     FM211330 13004KT P6SM BKN025
     FM211800 12003KT P6SM SKC=



000
FTUS43 KPAH 202300
TAFCGI
TAF
KCGI 202324Z 2100/2124 15004KT P6SM OVC024
      TEMPO 2107/2110 6SM -DZ BR OVC020=



000
FTUS43 KPAH 202300
TAFEVV
TAF
KEVV 202324Z 2100/2124 13004KT P6SM SKC
      TEMPO 2116/2120 BKN250=



000
FTUS43 KPAH 202000 AAB
TAFCGI
TAF AMD
KCGI 202034Z 2021/2118 VRB02KT P6SM SCT035
      TEMPO 2021/2022 BKN029
     FM210100 11003KT P6SM SCT250=



000
FTUS43 KPAH 201900 AAA
TAFPAH
TAF AMD
KPAH 201917Z 2019/2118 VRB02KT P6SM SCT060
      TEMPO 2019/2021 BKN060
     FM210100 10003KT P6SM SCT250=



000
FTUS43 KPAH 201900 AAA
TAFCGI
TAF AMD
KCGI 201916Z 2019/2118 VRB02KT P6SM SCT035
      TEMPO 2019/2021 BKN035
     FM210100 11003KT P6SM SCT250=



000
FTUS43 KPAH 201700
TAFPAH
TAF
KPAH 201732Z 2018/2118 VRB02KT P6SM BKN035 OVC060
     FM210100 10003KT P6SM SCT250=



000
FTUS43 KPAH 201700
TAFEVV
TAF
KEVV 201732Z 2018/2118 VRB02KT P6SM OVC060
     FM202300 VRB03KT P6SM SCT250=



000
FTUS43 KPAH 201700
TAFCGI
TAF
KCGI 201732Z 2018/2118 VRB02KT P6SM BKN030 OVC060
     FM210100 11003KT P6SM SCT250=



000
FTUS43 KPAH 201100
TAFEVV
TAF
KEVV 201137Z 2012/2112 06003KT P6SM OVC060
     FM202100 00000KT P6SM SCT050
     FM210800 00000KT 4SM BR SKC=



000
FTUS43 KPAH 201100
TAFPAH
TAF
KPAH 201137Z 2012/2112 06003KT P6SM OVC060
     FM202300 10003KT P6SM BKN050=



000
FTUS43 KPAH 201100
TAFCGI
TAF
KCGI 201137Z 2012/2112 06004KT P6SM OVC035
      TEMPO 2014/2017 BKN028 OVC035
     FM202000 11003KT P6SM BKN040=



000
FTUS43 KPAH 201100 AAA
TAFEVV
TAF AMD
KEVV 201124Z 2011/2106 06003KT P6SM OVC060
     FM202100 03003KT P6SM BKN130=



000
FTUS43 KPAH 201100 AAA
TAFPAH
TAF AMD
KPAH 201123Z 2011/2106 06003KT P6SM OVC060
     FM201500 05002KT P6SM OVC035
     FM201800 06003KT P6SM BKN035
     FM202100 07003KT P6SM BKN050=



000
FTUS43 KPAH 201100 AAA
TAFCGI
TAF AMD
KCGI 201122Z 2011/2106 06004KT P6SM OVC035
     FM201300 07003KT 4SM BR OVC028
     FM201600 09003KT P6SM OVC035
     FM202000 11003KT P6SM BKN050=



000
FTUS43 KPAH 200500
TAFCGI
TAF
KCGI 200520Z 2006/2106 03004KT P6SM OVC035
     FM200900 05004KT P6SM OVC022
     FM201200 07002KT 4SM BR OVC008
     FM201600 09003KT P6SM BKN015
     FM202000 11003KT P6SM BKN050=



000
FTUS43 KPAH 200500
TAFEVV
TAF
KEVV 200520Z 2006/2106 05004KT P6SM OVC060
     FM201100 04002KT 5SM BR OVC025
     FM201500 04003KT P6SM BKN060
     FM202100 03003KT P6SM BKN130=



000
FTUS43 KPAH 200500
TAFPAH
TAF
KPAH 200520Z 2006/2106 07004KT P6SM SCT022 OVC060
     FM201100 05002KT P6SM OVC022
     FM201500 05002KT 4SM BR OVC008
     FM201800 06003KT P6SM BKN015
     FM202100 07003KT P6SM BKN050=



000
FTUS43 KPAH 200300 AAA
TAFCGI
TAF AMD
KCGI 200353Z 2004/2024 03004KT P6SM OVC035
     FM200900 05004KT P6SM OVC022
     FM201200 07002KT 4SM BR OVC008
     FM201600 09003KT P6SM BKN015
     FM202000 11003KT P6SM BKN050=



000
FTUS43 KPAH 200300 AAA
TAFPAH
TAF AMD
KPAH 200353Z 2004/2024 07004KT P6SM SCT022 OVC060
     FM201100 05002KT P6SM OVC022
     FM201500 05002KT 4SM BR OVC008
     FM201800 06003KT P6SM BKN015
     FM202100 07003KT P6SM BKN050=



000
FTUS43 KPAH 200300 AAA
TAFEVV
TAF AMD
KEVV 200353Z 2004/2024 05004KT P6SM OVC060
     FM201100 04002KT 5SM BR OVC025
     FM201500 04003KT P6SM BKN060
     FM202100 03003KT P6SM BKN130=



000
FTUS43 KPAH 200300 AAA
TAFCGI
TAF AMD
KCGI 200353Z 2004/2024 03004KT P6SM OVC035
     FM200900 05004KT P6SM OVC022
     FM201200 07002KT 4SM BR OVC008
     FM201600 09003KT P6SM BKN015
     FM202000 11003KT P6SM BKN050=



000
FTUS43 KPAH 200300 AAA
TAFPAH
TAF AMD
KPAH 200353Z 2004/2024 07004KT P6SM SCT022 OVC060
     FM201100 05002KT P6SM OVC022
     FM201500 05002KT 4SM BR OVC008
     FM201800 06003KT P6SM BKN015
     FM202100 07003KT P6SM BKN050=



000
FTUS43 KPAH 200300 AAA
TAFEVV
TAF AMD
KEVV 200353Z 2004/2024 05004KT P6SM OVC060
     FM201100 04002KT 5SM BR OVC025
     FM201500 04003KT P6SM BKN060
     FM202100 03003KT P6SM BKN130=



000
FTUS43 KPAH 200100 AAA
TAFPAH
TAF AMD
KPAH 200144Z 2002/2024 03003KT P6SM SCT035 OVC080
      TEMPO 2003/2005 5SM -RASN BR
     FM200700 05003KT P6SM OVC020
     FM201100 05002KT 4SM BR OVC008
     FM201500 05002KT 5SM BR SCT004 BKN012
     FM201800 06003KT P6SM BKN015
     FM202100 07003KT P6SM BKN050=



000
FTUS43 KPAH 200100 AAA
TAFPAH
TAF AMD
KPAH 200144Z 2002/2024 03003KT P6SM SCT035 OVC080
      TEMPO 2003/2005 5SM -RASN BR
     FM200700 05003KT P6SM OVC020
     FM201100 05002KT 4SM BR OVC008
     FM201500 05002KT 5SM BR SCT004 BKN012
     FM201800 06003KT P6SM BKN015
     FM202100 07003KT P6SM BKN050=



000
FTUS43 KPAH 192300
TAFCGI
TAF
KCGI 192320Z 2000/2024 04003KT P6SM SCT035 OVC060
     FM200500 05004KT P6SM OVC015
     FM200900 07002KT 4SM BR OVC008
     FM201300 08002KT 5SM BR SCT004 BKN012
     FM201600 09003KT P6SM BKN015
     FM202000 11003KT P6SM BKN050=



000
FTUS43 KPAH 192300
TAFEVV
TAF
KEVV 192320Z 2000/2024 02003KT P6SM SCT035 OVC130
     FM200400 02002KT P6SM OVC035
     FM200700 02002KT 5SM BR OVC015
     FM201100 02003KT 5SM BR OVC010
     FM201500 02003KT P6SM BKN060=



000
FTUS43 KPAH 192300
TAFPAH
TAF
KPAH 192320Z 2000/2024 03003KT P6SM SCT035 OVC080
     FM200700 05003KT P6SM OVC015
     FM201100 05002KT 4SM BR OVC008
     FM201500 05002KT 5SM BR SCT004 BKN012
     FM201800 06003KT P6SM BKN015
     FM202100 07003KT P6SM BKN050=



000
FTUS43 KPAH 191700
TAFCGI
TAF
KCGI 191720Z 1918/2018 04005KT P6SM SCT015 OVC035
     FM192300 04003KT P6SM SCT005 OVC015
     FM200200 VRB02KT 3SM BR OVC005
     FM200500 VRB02KT 1 1/2SM BR OVC003
     FM201400 VRB02KT 5SM BR SCT004 BKN012
     FM201600 VRB03KT P6SM BKN015=



000
FTUS43 KPAH 191700
TAFPAH
TAF
KPAH 191720Z 1918/2018 06004KT P6SM SCT015 OVC035
     FM200000 04003KT P6SM SCT005 OVC015
     FM200300 VRB02KT 3SM BR OVC005
     FM200600 VRB02KT 1 1/2SM BR OVC003
     FM201400 VRB02KT 5SM BR SCT004 BKN012
     FM201600 VRB03KT P6SM BKN015=



000
FTUS43 KPAH 191700
TAFEVV
TAF
KEVV 191720Z 1918/2018 05006KT P6SM SCT015 BKN040
     FM200100 04003KT P6SM SCT005 OVC015
     FM200400 VRB02KT 4SM BR OVC005
     FM200700 VRB02KT 2SM BR OVC004
     FM201500 VRB03KT P6SM BKN012=



000
FTUS43 KPAH 191100
TAFPAH
TAF
KPAH 191139Z 1912/2012 05004KT P6SM BKN040=



000
FTUS43 KPAH 191100
TAFCGI
TAF
KCGI 191139Z 1912/2012 05004KT P6SM OVC040=



000
FTUS43 KPAH 191100
TAFEVV
TAF
KEVV 191139Z 1912/2012 02005KT P6SM BKN050
     FM191500 02004KT P6SM SCT050 BKN150=



000
FTUS43 KPAH 190500
TAFCGI
TAF
KCGI 190521Z 1906/2006 04004KT P6SM OVC011
      TEMPO 1909/1913 5SM BR SCT011 OVC020
     FM191300 05004KT P6SM OVC025
     FM191800 03003KT P6SM OVC050=



000
FTUS43 KPAH 190500
TAFPAH
TAF
KPAH 190521Z 1906/2006 04003KT P6SM OVC060
      TEMPO 1910/1914 5SM BR BKN020
     FM191400 06004KT P6SM OVC025
     FM191900 04004KT P6SM OVC050=



000
FTUS43 KPAH 190500
TAFEVV
TAF
KEVV 190521Z 1906/2006 01003KT P6SM OVC040
      TEMPO 1908/1912 5SM BR BKN025
     FM191500 02003KT P6SM OVC050=



000
FTUS43 KPAH 182300
TAFPAH
TAF
KPAH 182328Z 1900/1924 06003KT P6SM SCT012 OVC025
      TEMPO 1900/1903 BKN012
     FM190500 04003KT 4SM BR OVC020
      TEMPO 1908/1912 BKN008
     FM191400 06004KT P6SM OVC025
     FM191800 05004KT P6SM OVC040=



000
FTUS43 KPAH 182300
TAFCGI
TAF
KCGI 182328Z 1900/1924 08003KT P6SM OVC015
      TEMPO 1900/1902 SCT015 OVC025
     FM190400 04003KT 4SM BR OVC009
      TEMPO 1908/1912 2SM BR
     FM191300 05004KT 5SM BR OVC020
     FM191800 03003KT P6SM OVC025=



000
FTUS43 KPAH 182300
TAFEVV
TAF
KEVV 182328Z 1900/1924 36003KT P6SM SCT015 OVC040
      TEMPO 1902/1905 BKN025
     FM190500 01002KT P6SM OVC035
      TEMPO 1908/1912 5SM BR BKN015
     FM191500 02003KT P6SM OVC050=



000
FTUS43 KPAH 182000 AAA
TAFPAH
TAF AMD
KPAH 182036Z 1821/1918 06004KT P6SM SCT009 OVC015
      TEMPO 1821/1823 5SM BR OVC009
     FM182300 04002KT P6SM OVC025
      TEMPO 1908/1912 5SM BR
     FM191500 06004KT P6SM BKN030=



000
FTUS43 KPAH 182000 AAA
TAFCGI
TAF AMD
KCGI 182036Z 1821/1918 07004KT P6SM SCT009 OVC015
      TEMPO 1821/1823 5SM BR OVC009
     FM182300 04002KT P6SM OVC025
      TEMPO 1908/1912 4SM BR
     FM191500 05004KT P6SM BKN030=



000
FTUS43 KPAH 181700 CCA
TAFCGI
TAF COR
KCGI 181735Z 1818/1918 06004KT P6SM OVC007
     FM181900 06004KT P6SM SCT015 OVC050
      TEMPO 1819/1823 5SM BR OVC015
     FM182300 04002KT P6SM OVC025
      TEMPO 1908/1912 4SM BR
     FM191500 05004KT P6SM BKN030=



000
FTUS43 KPAH 181700
TAFEVV
TAF
KEVV 181720Z 1818/1918 02004KT P6SM SCT015 OVC050
      TEMPO 1818/1822 5SM BR OVC015
     FM182300 03002KT P6SM OVC020
      TEMPO 1908/1912 5SM BR
     FM191500 04004KT P6SM BKN025=



000
FTUS43 KPAH 181700
TAFPAH
TAF
KPAH 181720Z 1818/1918 VRB05KT 5SM BR OVC006
     FM181900 06004KT P6SM SCT015 OVC050
      TEMPO 1819/1823 5SM BR OVC015
     FM182300 04002KT P6SM OVC025
      TEMPO 1908/1912 5SM BR
     FM191500 06004KT P6SM BKN030=



000
FTUS43 KPAH 181700
TAFCGI
TAF
KCGI 181720Z 1818/1918 06004KT P6SM SCT015 OVC050
      TEMPO 1818/1822 5SM BR OVC015
     FM182300 04002KT P6SM OVC025
      TEMPO 1908/1912 4SM BR
     FM191500 05004KT P6SM BKN030=



000
FTUS43 KPAH 181600 AAA
TAFEVV
TAF AMD
KEVV 181630Z 1817/1912 02004KT P6SM SCT015 OVC050
      TEMPO 1817/1821 5SM BR OVC015
     FM182300 VRB02KT P6SM OVC040=



000
FTUS43 KPAH 181600 AAA
TAFPAH
TAF AMD
KPAH 181630Z 1817/1912 05005KT 4SM BR OVC006
     FM182300 04002KT P6SM OVC025=



000
FTUS43 KPAH 181600 AAA
TAFCGI
TAF AMD
KCGI 181629Z 1816/1912 06004KT 3SM BR OVC007
     FM182300 04002KT P6SM OVC025=



    US Dept of Commerce
    National Oceanic and Atmospheric Administration
    National Weather Service
    1325 East West Highway
    Silver Spring, MD 20910
    Page Author: NWS Internet Services Team
Disclaimer
Information Quality
Credits
Glossary
Privacy Policy
Freedom of Information Act (FOIA)
About Us
Career Opportunities